createdAt,value
2018-09-17T00:01:55.140Z,14.64
2018-09-17T00:04:24.646Z,14.64
2018-09-17T00:06:54.895Z,14.52
2018-09-17T00:09:24.147Z,14.52
2018-09-17T00:11:53.466Z,14.55
2018-09-17T00:14:23.083Z,14.62
2018-09-17T00:16:52.908Z,14.35
2018-09-17T00:19:22.287Z,14.16
2018-09-17T00:21:51.740Z,14.16
2018-09-17T00:24:20.975Z,14.15
2018-09-17T00:26:50.401Z,14.11
2018-09-17T00:29:19.715Z,14.18
2018-09-17T00:31:48.971Z,14.26
2018-09-17T00:34:18.142Z,14.32
2018-09-17T00:36:47.619Z,14.32
2018-09-17T00:39:19.058Z,14.27
2018-09-17T00:41:48.460Z,14.17
2018-09-17T00:44:17.944Z,14.13
2018-09-17T00:46:47.307Z,14.14
2018-09-17T00:49:16.345Z,14.10
2018-09-17T00:51:45.676Z,14.16
2018-09-17T00:54:15.489Z,14.07
2018-09-17T00:56:44.992Z,14.06
2018-09-17T00:59:14.526Z,14.04
2018-09-17T01:01:43.772Z,14.06
2018-09-17T01:04:12.869Z,14.17
2018-09-17T01:06:41.925Z,14.06
2018-09-17T01:09:14.937Z,13.75
2018-09-17T01:11:44.044Z,13.66
2018-09-17T01:14:13.047Z,13.86
2018-09-17T01:16:42.109Z,13.80
2018-09-17T01:19:19.329Z,13.80
2018-09-17T01:21:48.478Z,13.73
2018-09-17T01:24:18.400Z,13.57
2018-09-17T01:26:48.162Z,13.61
2018-09-17T01:29:17.187Z,13.76
2018-09-17T01:31:46.182Z,13.72
2018-09-17T01:34:15.237Z,13.60
2018-09-17T01:36:44.358Z,13.63
2018-09-17T01:39:13.413Z,13.70
2018-09-17T01:41:42.517Z,13.68
2018-09-17T01:44:11.671Z,13.54
2018-09-17T01:46:40.683Z,13.47
2018-09-17T01:49:09.694Z,13.47
2018-09-17T01:51:38.801Z,13.62
2018-09-17T01:54:07.949Z,13.53
2018-09-17T01:56:36.966Z,13.61
2018-09-17T01:59:06.018Z,13.44
2018-09-17T02:01:35.031Z,13.50
2018-09-17T02:04:04.029Z,13.54
2018-09-17T02:06:33.397Z,13.47
2018-09-17T02:09:02.575Z,13.37
2018-09-17T02:11:31.566Z,13.41
2018-09-17T02:14:00.579Z,13.30
2018-09-17T02:16:29.611Z,13.26
2018-09-17T02:18:58.808Z,13.46
2018-09-17T02:21:27.873Z,13.27
2018-09-17T02:23:56.917Z,13.25
2018-09-17T02:26:25.906Z,13.21
2018-09-17T02:28:54.970Z,13.24
2018-09-17T02:31:24.001Z,13.25
2018-09-17T02:33:53.791Z,13.10
2018-09-17T02:36:22.914Z,12.95
2018-09-17T02:38:52.428Z,12.99
2018-09-17T02:41:21.903Z,13.08
2018-09-17T02:43:51.208Z,13.10
2018-09-17T02:46:20.706Z,13.12
2018-09-17T02:48:50.173Z,13.14
2018-09-17T02:51:19.202Z,13.12
2018-09-17T02:53:49.024Z,13.14
2018-09-17T02:56:18.466Z,13.16
2018-09-17T02:58:47.652Z,13.10
2018-09-17T03:01:16.760Z,13.05
2018-09-17T03:03:45.726Z,12.93
2018-09-17T03:06:14.731Z,12.94
2018-09-17T03:08:45.878Z,13.04
2018-09-17T03:11:15.413Z,12.96
2018-09-17T03:13:44.815Z,12.87
2018-09-17T03:16:14.159Z,12.88
2018-09-17T03:18:55.751Z,12.88
2018-09-17T03:21:25.084Z,12.81
2018-09-17T03:23:55.333Z,12.74
2018-09-17T03:26:24.731Z,12.84
2018-09-17T03:28:54.300Z,12.79
2018-09-17T03:31:24.313Z,12.53
2018-09-17T03:33:53.986Z,12.65
2018-09-17T03:36:23.843Z,12.64
2018-09-17T03:38:53.794Z,12.62
2018-09-17T03:41:23.234Z,12.65
2018-09-17T03:43:53.078Z,12.68
2018-09-17T03:46:22.379Z,12.66
2018-09-17T03:48:51.965Z,12.68
2018-09-17T03:51:21.304Z,12.67
2018-09-17T03:53:50.690Z,12.69
2018-09-17T03:56:20.023Z,12.66
2018-09-17T03:58:49.414Z,12.77
2018-09-17T04:01:18.736Z,12.70
2018-09-17T04:03:48.304Z,12.68
2018-09-17T04:06:17.601Z,12.63
2018-09-17T04:08:47.758Z,12.73
2018-09-17T04:11:17.194Z,12.71
2018-09-17T04:13:47.304Z,12.71
2018-09-17T04:16:16.632Z,12.73
2018-09-17T04:18:45.761Z,12.69
2018-09-17T04:21:14.792Z,12.57
2018-09-17T04:23:43.829Z,12.45
2018-09-17T04:26:13.736Z,12.47
2018-09-17T04:28:43.928Z,12.54
2018-09-17T04:31:13.444Z,12.46
2018-09-17T04:33:43.601Z,12.57
2018-09-17T04:36:13.639Z,12.63
2018-09-17T04:38:45.307Z,12.45
2018-09-17T04:41:14.350Z,12.59
2018-09-17T04:43:43.405Z,12.50
2018-09-17T04:46:12.396Z,12.50
2018-09-17T04:48:41.898Z,12.42
2018-09-17T04:51:10.925Z,12.41
2018-09-17T04:53:40.253Z,12.33
2018-09-17T04:56:09.675Z,12.39
2018-09-17T04:58:39.038Z,12.44
2018-09-17T05:01:09.455Z,12.54
2018-09-17T05:03:38.910Z,12.71
2018-09-17T05:06:08.114Z,12.71
2018-09-17T05:08:37.488Z,12.48
2018-09-17T05:11:06.850Z,12.61
2018-09-17T05:13:36.303Z,12.68
2018-09-17T05:16:05.776Z,12.63
2018-09-17T05:18:35.054Z,12.72
2018-09-17T05:21:04.303Z,12.77
2018-09-17T05:23:33.871Z,12.92
2018-09-17T05:26:03.275Z,13.26
2018-09-17T05:28:32.683Z,13.34
2018-09-17T05:31:01.894Z,13.43
2018-09-17T05:33:31.291Z,13.59
2018-09-17T05:36:00.552Z,13.56
2018-09-17T05:38:30.112Z,13.58
2018-09-17T05:40:59.252Z,13.64
2018-09-17T05:43:28.691Z,13.88
2018-09-17T05:45:58.012Z,14.08
2018-09-17T05:48:27.221Z,14.11
2018-09-17T05:50:56.296Z,14.21
2018-09-17T05:53:25.492Z,14.21
2018-09-17T05:55:54.930Z,14.23
2018-09-17T05:58:23.958Z,14.29
2018-09-17T06:00:53.076Z,14.43
2018-09-17T06:03:22.492Z,14.32
2018-09-17T06:05:51.660Z,14.24
2018-09-17T06:08:21.268Z,14.30
2018-09-17T06:10:50.653Z,14.22
2018-09-17T06:13:20.078Z,14.25
2018-09-17T06:15:49.459Z,14.21
2018-09-17T06:18:18.924Z,14.20
2018-09-17T06:20:48.711Z,14.41
2018-09-17T06:23:17.961Z,14.65
2018-09-17T06:25:47.084Z,14.82
2018-09-17T06:28:16.422Z,14.98
2018-09-17T06:30:45.624Z,15.02
2018-09-17T06:33:14.585Z,14.89
2018-09-17T06:35:43.608Z,15.20
2018-09-17T06:38:12.668Z,14.97
2018-09-17T06:40:41.947Z,15.10
2018-09-17T06:43:10.969Z,15.14
2018-09-17T06:45:40.686Z,15.17
2018-09-17T06:48:10.156Z,15.33
2018-09-17T06:50:39.251Z,15.72
2018-09-17T06:53:08.534Z,15.59
2018-09-17T06:55:37.608Z,15.85
2018-09-17T06:58:06.738Z,15.92
2018-09-17T07:00:36.046Z,15.80
2018-09-17T07:03:05.203Z,15.77
2018-09-17T07:05:34.790Z,15.84
2018-09-17T07:08:04.417Z,15.57
2018-09-17T07:10:33.919Z,15.69
2018-09-17T07:13:03.332Z,15.59
2018-09-17T07:15:34.377Z,15.42
2018-09-17T07:18:03.923Z,15.28
2018-09-17T07:20:33.313Z,15.36
2018-09-17T07:23:02.785Z,15.87
2018-09-17T07:25:32.229Z,16.17
2018-09-17T07:28:01.554Z,16.21
2018-09-17T07:30:30.974Z,16.39
2018-09-17T07:33:00.663Z,16.16
2018-09-17T07:35:30.069Z,16.51
2018-09-17T07:37:59.758Z,16.71
2018-09-17T07:40:30.875Z,16.60
2018-09-17T07:43:00.967Z,16.62
2018-09-17T07:45:30.353Z,16.64
2018-09-17T07:47:59.604Z,17.30
2018-09-17T07:50:29.400Z,17.15
2018-09-17T07:53:00.193Z,17.30
2018-09-17T07:55:29.592Z,17.19
2018-09-17T07:57:59.148Z,17.26
2018-09-17T08:00:28.526Z,17.88
2018-09-17T08:02:57.802Z,17.91
2018-09-17T08:05:27.127Z,18.07
2018-09-17T08:07:56.616Z,17.89
2018-09-17T08:10:26.754Z,17.84
2018-09-17T08:12:56.351Z,17.96
2018-09-17T08:15:25.928Z,17.55
2018-09-17T08:17:55.404Z,17.54
2018-09-17T08:20:24.659Z,17.71
2018-09-17T08:22:53.936Z,17.84
2018-09-17T08:25:23.281Z,17.84
2018-09-17T08:27:53.564Z,17.98
2018-09-17T08:30:23.010Z,18.28
2018-09-17T08:32:52.583Z,18.44
2018-09-17T08:35:22.005Z,18.24
2018-09-17T08:37:51.346Z,18.49
2018-09-17T08:40:20.723Z,18.68
2018-09-17T08:42:50.047Z,18.83
2018-09-17T08:45:19.718Z,18.95
2018-09-17T08:47:49.210Z,19.04
2018-09-17T08:50:18.711Z,19.86
2018-09-17T08:52:48.181Z,19.74
2018-09-17T08:55:22.555Z,19.81
2018-09-17T08:58:01.345Z,19.56
2018-09-17T09:00:36.093Z,20.10
2018-09-17T09:03:10.399Z,20.23
2018-09-17T09:05:40.836Z,20.11
2018-09-17T09:08:10.233Z,20.03
2018-09-17T09:10:44.695Z,20.44
2018-09-17T09:13:20.099Z,20.17
2018-09-17T09:15:49.732Z,20.13
2018-09-17T09:18:18.963Z,20.62
2018-09-17T09:20:48.509Z,20.71
2018-09-17T09:23:17.846Z,21.31
2018-09-17T09:25:47.090Z,20.99
2018-09-17T09:28:16.583Z,21.00
2018-09-17T09:30:46.698Z,20.94
2018-09-17T09:33:15.872Z,20.98
2018-09-17T09:35:45.474Z,21.17
2018-09-17T09:38:14.772Z,21.42
2018-09-17T09:40:45.054Z,21.85
2018-09-17T09:43:14.467Z,21.42
2018-09-17T09:45:43.870Z,22.02
2018-09-17T09:48:13.295Z,21.60
2018-09-17T09:50:42.740Z,22.24
2018-09-17T09:53:12.060Z,21.93
2018-09-17T09:55:42.128Z,22.43
2018-09-17T09:58:14.225Z,22.35
2018-09-17T10:00:48.747Z,22.75
2018-09-17T10:04:25.640Z,22.49
2018-09-17T10:06:55.207Z,22.99
2018-09-17T10:09:29.648Z,23.31
2018-09-17T10:12:04.615Z,22.09
2018-09-17T10:14:45.531Z,23.30
2018-09-17T10:17:19.856Z,22.92
2018-09-17T10:19:50.362Z,23.21
2018-09-17T10:22:20.218Z,22.90
2018-09-17T10:24:49.637Z,23.40
2018-09-17T10:27:19.417Z,23.89
2018-09-17T10:29:48.838Z,24.16
2018-09-17T10:32:18.289Z,23.64
2018-09-17T10:34:47.613Z,23.82
2018-09-17T10:37:17.251Z,24.01
2018-09-17T10:39:46.664Z,24.28
2018-09-17T10:42:15.937Z,24.20
2018-09-17T10:44:45.354Z,24.30
2018-09-17T10:47:14.733Z,24.43
2018-09-17T10:49:44.530Z,24.62
2018-09-17T10:52:13.965Z,24.50
2018-09-17T10:54:43.495Z,24.48
2018-09-17T10:57:13.068Z,24.59
2018-09-17T10:59:43.334Z,25.11
2018-09-17T11:02:12.688Z,25.16
2018-09-17T11:04:42.117Z,25.06
2018-09-17T11:07:11.516Z,25.24
2018-09-17T11:09:41.015Z,25.00
2018-09-17T11:12:10.604Z,25.56
2018-09-17T11:14:40.046Z,25.42
2018-09-17T11:17:09.597Z,25.44
2018-09-17T11:19:39.207Z,25.52
2018-09-17T11:22:09.469Z,25.86
2018-09-17T11:24:40.269Z,26.08
2018-09-17T11:27:09.608Z,25.96
2018-09-17T11:29:38.921Z,25.43
2018-09-17T11:32:08.398Z,25.72
2018-09-17T11:34:37.775Z,25.71
2018-09-17T11:37:07.387Z,26.06
2018-09-17T11:39:36.906Z,26.12
2018-09-17T11:42:06.465Z,25.45
2018-09-17T11:44:36.091Z,25.65
2018-09-17T11:47:06.137Z,26.22
2018-09-17T11:49:36.288Z,25.80
2018-09-17T11:52:06.150Z,26.32
2018-09-17T11:54:35.979Z,26.66
2018-09-17T11:57:06.614Z,26.58
2018-09-17T11:59:36.272Z,26.27
2018-09-17T12:02:10.262Z,26.75
2018-09-17T12:04:44.752Z,26.48
2018-09-17T12:07:19.887Z,26.23
2018-09-17T12:09:50.201Z,26.47
2018-09-17T12:12:19.720Z,26.15
2018-09-17T12:14:49.230Z,26.64
2018-09-17T12:17:18.710Z,26.11
2018-09-17T12:19:48.872Z,25.82
2018-09-17T12:22:18.324Z,26.19
2018-09-17T12:24:47.978Z,26.62
2018-09-17T12:27:28.659Z,26.64
2018-09-17T12:29:58.342Z,26.72
2018-09-17T12:32:27.679Z,26.76
2018-09-17T12:34:57.208Z,26.80
2018-09-17T12:37:26.348Z,26.64
2018-09-17T12:39:55.794Z,26.99
2018-09-17T12:42:25.414Z,27.40
2018-09-17T12:44:54.625Z,27.58
2018-09-17T12:47:23.892Z,27.29
2018-09-17T12:49:53.344Z,27.38
2018-09-17T12:52:23.484Z,27.18
2018-09-17T12:54:53.134Z,27.38
2018-09-17T12:57:22.251Z,27.22
2018-09-17T12:59:52.248Z,27.27
2018-09-17T13:02:21.588Z,27.51
2018-09-17T13:04:50.798Z,27.28
2018-09-17T13:07:20.392Z,27.33
2018-09-17T13:09:49.618Z,27.21
2018-09-17T13:12:18.638Z,27.18
2018-09-17T13:14:48.563Z,27.26
2018-09-17T13:17:17.778Z,27.24
2018-09-17T13:19:47.057Z,27.63
2018-09-17T13:22:16.531Z,27.16
2018-09-17T13:24:46.174Z,27.14
2018-09-17T13:27:17.216Z,27.14
2018-09-17T13:29:46.789Z,27.10
2018-09-17T13:32:16.241Z,27.02
2018-09-17T13:34:45.706Z,27.18
2018-09-17T13:37:15.172Z,27.20
2018-09-17T13:39:44.819Z,27.12
2018-09-17T13:42:15.285Z,27.08
2018-09-17T13:44:44.496Z,27.09
2018-09-17T13:47:14.433Z,27.16
2018-09-17T13:49:43.555Z,27.19
2018-09-17T13:52:13.620Z,27.35
2018-09-17T13:54:42.689Z,27.34
2018-09-17T13:57:11.931Z,27.19
2018-09-17T13:59:42.050Z,27.33
2018-09-17T14:02:11.494Z,27.33
2018-09-17T14:04:40.827Z,27.14
2018-09-17T14:07:10.574Z,27.17
2018-09-17T14:09:39.818Z,27.39
2018-09-17T14:12:09.460Z,27.51
2018-09-17T14:14:39.096Z,27.26
2018-09-17T14:17:09.104Z,27.14
2018-09-17T14:19:38.600Z,27.20
2018-09-17T14:22:07.949Z,26.94
2018-09-17T14:24:37.052Z,27.00
2018-09-17T14:27:06.175Z,27.23
2018-09-17T14:29:36.535Z,27.02
2018-09-17T14:32:11.005Z,27.17
2018-09-17T14:34:40.322Z,27.06
2018-09-17T14:37:11.266Z,27.09
2018-09-17T14:39:40.943Z,27.01
2018-09-17T14:42:11.457Z,26.95
2018-09-17T14:44:42.963Z,26.86
2018-09-17T14:47:16.904Z,26.94
2018-09-17T14:49:46.532Z,27.02
2018-09-17T14:52:19.301Z,26.88
2018-09-17T14:54:50.011Z,26.75
2018-09-17T14:57:20.450Z,26.84
2018-09-17T14:59:50.194Z,27.01
2018-09-17T15:02:19.759Z,26.84
2018-09-17T15:04:49.644Z,26.61
2018-09-17T15:07:19.170Z,26.47
2018-09-17T15:09:49.528Z,26.36
2018-09-17T15:12:18.665Z,26.11
2018-09-17T15:14:48.335Z,25.86
2018-09-17T15:17:18.303Z,25.71
2018-09-17T15:19:48.153Z,25.53
2018-09-17T15:22:20.997Z,25.37
2018-09-17T15:24:51.407Z,25.32
2018-09-17T15:27:20.795Z,25.13
2018-09-17T15:29:50.603Z,24.75
2018-09-17T15:32:20.101Z,24.91
2018-09-17T15:34:49.492Z,24.65
2018-09-17T15:37:19.166Z,24.54
2018-09-17T15:39:48.562Z,24.22
2018-09-17T15:42:19.035Z,24.25
2018-09-17T15:44:49.205Z,24.09
2018-09-17T15:47:18.828Z,24.10
2018-09-17T15:49:48.783Z,24.01
2018-09-17T15:52:18.850Z,23.95
2018-09-17T15:54:48.478Z,23.94
2018-09-17T15:57:17.869Z,23.73
2018-09-17T15:59:46.961Z,23.68
2018-09-17T16:02:16.284Z,23.69
2018-09-17T16:04:45.607Z,23.69
2018-09-17T16:07:14.861Z,23.51
2018-09-17T16:09:43.938Z,23.45
2018-09-17T16:12:15.013Z,23.30
2018-09-17T16:14:44.175Z,23.30
2018-09-17T16:17:13.201Z,23.19
2018-09-17T16:19:42.421Z,22.88
2018-09-17T16:22:11.505Z,22.73
2018-09-17T16:24:40.622Z,22.63
2018-09-17T16:27:10.205Z,22.56
2018-09-17T16:29:39.251Z,22.32
2018-09-17T16:32:08.368Z,22.30
2018-09-17T16:34:37.465Z,22.31
2018-09-17T16:37:08.062Z,22.32
2018-09-17T16:39:37.480Z,22.24
2018-09-17T16:42:07.581Z,21.97
2018-09-17T16:44:37.516Z,22.07
2018-09-17T16:47:07.564Z,21.99
2018-09-17T16:49:36.860Z,21.81
2018-09-17T16:52:06.338Z,21.72
2018-09-17T16:54:36.261Z,21.52
2018-09-17T16:57:05.551Z,21.48
2018-09-17T16:59:35.032Z,21.41
2018-09-17T17:02:05.361Z,21.47
2018-09-17T17:04:35.094Z,21.32
2018-09-17T17:07:04.796Z,21.37
2018-09-17T17:09:34.913Z,21.26
2018-09-17T17:12:04.821Z,20.98
2018-09-17T17:14:33.957Z,21.05
2018-09-17T17:17:03.099Z,21.03
2018-09-17T17:19:32.951Z,20.96
2018-09-17T17:22:03.103Z,20.90
2018-09-17T17:24:32.679Z,20.66
2018-09-17T17:27:02.505Z,20.61
2018-09-17T17:29:35.935Z,20.63
2018-09-17T17:32:05.460Z,20.50
2018-09-17T17:34:34.949Z,20.44
2018-09-17T17:37:04.452Z,20.35
2018-09-17T17:39:33.936Z,20.34
2018-09-17T17:42:03.628Z,20.37
2018-09-17T17:44:33.330Z,20.24
2018-09-17T17:47:03.298Z,20.32
2018-09-17T17:49:32.899Z,20.28
2018-09-17T17:52:02.058Z,20.23
2018-09-17T17:54:31.556Z,20.13
2018-09-17T17:57:00.773Z,20.04
2018-09-17T17:59:30.577Z,20.04
2018-09-17T18:02:00.304Z,20.10
2018-09-17T18:04:30.111Z,19.83
2018-09-17T18:07:00.275Z,19.79
2018-09-17T18:09:31.453Z,19.87
2018-09-17T18:12:01.219Z,19.73
2018-09-17T18:14:32.573Z,19.78
2018-09-17T18:17:02.801Z,19.77
2018-09-17T18:19:33.067Z,19.72
2018-09-17T18:22:02.708Z,19.64
2018-09-17T18:24:32.576Z,19.70
2018-09-17T18:27:02.100Z,19.76
2018-09-17T18:29:31.947Z,19.62
2018-09-17T18:32:02.548Z,19.53
2018-09-17T18:34:32.577Z,19.43
2018-09-17T18:37:03.177Z,19.37
2018-09-17T18:39:32.773Z,19.11
2018-09-17T18:42:02.588Z,19.06
2018-09-17T18:44:32.135Z,19.16
2018-09-17T18:47:01.817Z,19.11
2018-09-17T18:49:31.375Z,18.96
2018-09-17T18:52:02.664Z,19.05
2018-09-17T18:54:33.826Z,19.15
2018-09-17T18:57:03.309Z,19.16
2018-09-17T18:59:34.887Z,19.12
2018-09-17T19:02:06.417Z,19.02
2018-09-17T19:04:36.021Z,18.95
2018-09-17T19:07:06.824Z,18.89
2018-09-17T19:09:42.976Z,18.84
2018-09-17T19:12:15.252Z,18.69
2018-09-17T19:14:50.993Z,18.74
2018-09-17T19:17:26.157Z,18.54
2018-09-17T19:19:56.784Z,18.57
2018-09-17T19:22:33.197Z,18.45
2018-09-17T19:25:03.592Z,18.58
2018-09-17T19:27:39.148Z,18.46
2018-09-17T19:30:09.407Z,18.46
2018-09-17T19:32:39.580Z,18.43
2018-09-17T19:35:10.098Z,18.46
2018-09-17T19:37:45.550Z,18.40
2018-09-17T19:40:23.405Z,18.33
2018-09-17T19:42:54.425Z,18.22
2018-09-17T19:45:30.435Z,18.14
2018-09-17T19:48:03.305Z,18.13
2018-09-17T19:50:39.062Z,18.10
2018-09-17T19:53:09.171Z,18.00
2018-09-17T19:55:40.012Z,17.89
2018-09-17T19:58:15.956Z,17.90
2018-09-17T20:00:46.240Z,17.96
2018-09-17T20:03:15.774Z,17.92
2018-09-17T20:05:50.397Z,17.82
2018-09-17T20:08:20.227Z,17.79
2018-09-17T20:10:49.776Z,17.67
2018-09-17T20:13:19.219Z,17.52
2018-09-17T20:15:48.583Z,17.54
2018-09-17T20:18:17.904Z,17.40
2018-09-17T20:20:47.526Z,17.28
2018-09-17T20:23:17.817Z,17.21
2018-09-17T20:25:47.368Z,17.25
2018-09-17T20:28:16.721Z,17.47
2018-09-17T20:30:47.400Z,17.45
2018-09-17T20:33:17.878Z,17.56
2018-09-17T20:35:47.514Z,17.59
2018-09-17T20:38:17.218Z,17.53
2018-09-17T20:40:47.883Z,17.45
2018-09-17T20:43:18.177Z,17.28
2018-09-17T20:45:49.409Z,17.34
2018-09-17T20:48:19.250Z,17.38
2018-09-17T20:50:48.801Z,17.40
2018-09-17T20:53:19.452Z,17.46
2018-09-17T20:55:49.363Z,17.24
2018-09-17T20:58:19.578Z,17.01
2018-09-17T21:00:49.452Z,16.99
2018-09-17T21:03:18.781Z,17.12
2018-09-17T21:05:48.927Z,17.23
2018-09-17T21:08:19.547Z,17.16
2018-09-17T21:10:49.636Z,17.09
2018-09-17T21:13:19.024Z,17.11
2018-09-17T21:15:48.635Z,17.14
2018-09-17T21:18:18.580Z,16.96
2018-09-17T21:20:48.846Z,16.92
2018-09-17T21:23:19.047Z,16.76
2018-09-17T21:25:48.859Z,16.67
2018-09-17T21:28:18.163Z,16.53
2018-09-17T21:30:48.970Z,16.66
2018-09-17T21:33:19.115Z,16.72
2018-09-17T21:35:48.729Z,16.70
2018-09-17T21:38:19.868Z,16.71
2018-09-17T21:40:49.577Z,16.75
2018-09-17T21:43:19.608Z,16.58
2018-09-17T21:45:49.515Z,16.55
2018-09-17T21:48:19.509Z,16.49
2018-09-17T21:50:49.242Z,16.46
2018-09-17T21:53:19.253Z,16.41
2018-09-17T21:55:48.589Z,16.28
2018-09-17T21:58:18.011Z,16.22
2018-09-17T22:00:52.661Z,16.21
2018-09-17T22:03:22.103Z,15.95
2018-09-17T22:05:51.689Z,16.22
2018-09-17T22:08:22.845Z,16.29
2018-09-17T22:10:52.208Z,16.11
2018-09-17T22:13:21.665Z,16.01
2018-09-17T22:15:51.369Z,16.03
2018-09-17T22:18:21.378Z,15.82
2018-09-17T22:20:50.586Z,15.74
2018-09-17T22:23:21.224Z,15.80
2018-09-17T22:25:51.356Z,15.94
2018-09-17T22:28:21.203Z,15.85
2018-09-17T22:30:50.782Z,15.56
2018-09-17T22:33:20.767Z,15.59
2018-09-17T22:35:50.471Z,15.72
2018-09-17T22:38:20.085Z,15.59
2018-09-17T22:40:50.778Z,15.32
2018-09-17T22:43:20.137Z,15.52
2018-09-17T22:45:49.480Z,15.49
2018-09-17T22:48:18.960Z,15.49
2018-09-17T22:50:48.447Z,15.35
2018-09-17T22:53:17.843Z,15.32
2018-09-17T22:55:47.229Z,15.24
2018-09-17T22:58:16.498Z,15.06
2018-09-17T23:00:46.376Z,15.10
2018-09-17T23:03:15.898Z,15.04
2018-09-17T23:05:45.409Z,15.21
2018-09-17T23:08:14.700Z,14.84
2018-09-17T23:10:44.081Z,14.98
2018-09-17T23:13:13.677Z,15.06
2018-09-17T23:15:43.197Z,15.10
2018-09-17T23:18:13.235Z,14.94
2018-09-17T23:20:42.291Z,14.87
2018-09-17T23:23:13.020Z,15.05
2018-09-17T23:25:43.794Z,15.02
2018-09-17T23:28:13.167Z,14.82
2018-09-17T23:30:42.705Z,14.82
2018-09-17T23:33:12.180Z,14.83
2018-09-17T23:35:41.782Z,14.80
2018-09-17T23:38:11.175Z,14.74
2018-09-17T23:40:40.556Z,14.68
2018-09-17T23:43:09.826Z,14.65
2018-09-17T23:45:39.176Z,14.68
2018-09-17T23:48:08.405Z,14.68
2018-09-17T23:50:37.917Z,14.62
2018-09-17T23:53:07.609Z,14.63
2018-09-17T23:55:37.322Z,14.40
2018-09-17T23:58:07.439Z,14.55
